Samsun, Turkey
Current Conditions -  °F | °C
As of 2:50 PM on Sunday 21 Dec 2014 (Local Time) from LTFH Reporting Station
Broken Clouds Broken Clouds  
Wind Chill: 57°   Ceiling: 10000
Heat Index: 57°   Visibility: 6mi
Dew Point: 41°   Wind: 2mph
Humidity: 55%   Direction: 100°E
Pressure: 29.97"   Gusts: NA
Location:  41.29°N, 36.33°E
Report Text: LTFH 211150Z 10002KT 9999 FEW036 BKN100 14/05 Q1015 NOSIG
Loading
Personal Weather Stations






























Interactive Weather Map New forecast layout! Learn more

10-Day Weather Forecast

Advertisements
Track Severe Weather on mobile